createdAt,value
2018-04-30T00:00:46.271Z,68.79
2018-04-30T00:01:46.456Z,68.79
2018-04-30T00:02:46.634Z,68.60
2018-04-30T00:03:46.814Z,68.60
2018-04-30T00:04:47.003Z,68.79
2018-04-30T00:05:47.177Z,69.08
2018-04-30T00:06:47.354Z,69.08
2018-04-30T00:07:47.538Z,69.18
2018-04-30T00:08:47.723Z,69.18
2018-04-30T00:09:47.910Z,69.08
2018-04-30T00:10:48.086Z,69.08
2018-04-30T00:11:48.268Z,68.98
2018-04-30T00:12:48.447Z,69.27
2018-04-30T00:13:48.622Z,69.27
2018-04-30T00:14:48.796Z,69.37
2018-04-30T00:15:48.975Z,68.98
2018-04-30T00:16:49.157Z,69.27
2018-04-30T00:17:49.329Z,69.27
2018-04-30T00:18:49.506Z,69.18
2018-04-30T00:19:49.680Z,69.27
2018-04-30T00:20:49.855Z,69.46
2018-04-30T00:21:50.034Z,69.66
2018-04-30T00:22:50.220Z,69.37
2018-04-30T00:23:50.396Z,69.66
2018-04-30T00:24:50.569Z,69.75
2018-04-30T00:25:50.746Z,69.37
2018-04-30T00:26:50.917Z,69.66
2018-04-30T00:27:51.095Z,69.18
2018-04-30T00:28:51.279Z,68.98
2018-04-30T00:29:51.453Z,69.27
2018-04-30T00:30:51.630Z,69.37
2018-04-30T00:31:51.818Z,69.18
2018-04-30T00:32:51.996Z,69.18
2018-04-30T00:33:52.172Z,69.18
2018-04-30T00:34:52.347Z,69.56
2018-04-30T00:35:52.527Z,69.75
2018-04-30T00:36:52.713Z,69.85
2018-04-30T00:37:52.897Z,69.85
2018-04-30T00:38:53.078Z,69.75
2018-04-30T00:39:53.260Z,69.85
2018-04-30T00:40:53.443Z,70.23
2018-04-30T00:41:53.624Z,70.23
2018-04-30T00:42:53.802Z,69.95
2018-04-30T00:43:53.981Z,70.33
2018-04-30T00:44:54.159Z,70.14
2018-04-30T00:45:54.342Z,70.14
2018-04-30T00:46:54.518Z,70.23
2018-04-30T00:47:54.690Z,70.43
2018-04-30T00:48:54.869Z,70.62
2018-04-30T00:49:55.040Z,70.29
2018-04-30T00:50:55.275Z,71.06
2018-04-30T00:51:55.393Z,70.97
2018-04-30T00:52:55.575Z,70.97
2018-04-30T00:53:55.757Z,70.87
2018-04-30T00:54:55.934Z,71.35
2018-04-30T00:55:56.112Z,71.16
2018-04-30T00:56:56.285Z,71.16
2018-04-30T00:57:56.461Z,71.35
2018-04-30T00:58:56.642Z,71.35
2018-04-30T00:59:56.819Z,71.73
2018-04-30T01:00:56.995Z,71.93
2018-04-30T01:01:57.175Z,72.02
2018-04-30T01:02:57.348Z,71.73
2018-04-30T01:03:57.528Z,72.02
2018-04-30T01:04:57.701Z,71.93
2018-04-30T01:05:57.886Z,72.50
2018-04-30T01:06:58.064Z,72.22
2018-04-30T01:07:58.239Z,72.69
2018-04-30T01:08:58.417Z,72.41
2018-04-30T01:09:58.592Z,72.79
2018-04-30T01:10:58.770Z,72.85
2018-04-30T01:11:58.945Z,73.37
2018-04-30T01:12:59.116Z,73.33
2018-04-30T01:13:59.292Z,73.66
2018-04-30T01:14:59.472Z,73.14
2018-04-30T01:15:59.657Z,73.04
2018-04-30T01:16:59.835Z,73.24
2018-04-30T01:18:00.011Z,74.10
2018-04-30T01:19:00.187Z,74.10
2018-04-30T01:20:00.363Z,74.29
2018-04-30T01:21:00.538Z,74.58
2018-04-30T01:22:00.712Z,74.48
2018-04-30T01:23:00.887Z,74.39
2018-04-30T01:24:01.067Z,74.58
2018-04-30T01:25:01.260Z,74.39
2018-04-30T01:26:01.438Z,74.87
2018-04-30T01:27:01.621Z,74.87
2018-04-30T01:28:01.807Z,74.68
2018-04-30T01:29:01.980Z,75.02
2018-04-30T01:30:02.158Z,74.77
2018-04-30T01:31:02.332Z,74.96
2018-04-30T01:32:02.506Z,74.96
2018-04-30T01:33:02.684Z,75.02
2018-04-30T01:34:02.864Z,75.06
2018-04-30T01:35:03.041Z,74.93
2018-04-30T01:36:03.211Z,75.60
2018-04-30T01:37:03.392Z,75.70
2018-04-30T01:38:03.583Z,75.40
2018-04-30T01:39:03.763Z,75.31
2018-04-30T01:40:03.941Z,76.46
2018-04-30T01:41:04.119Z,76.07
2018-04-30T01:42:04.292Z,76.27
2018-04-30T01:43:04.479Z,76.37
2018-04-30T01:44:04.655Z,76.27
2018-04-30T01:45:04.843Z,77.04
2018-04-30T01:46:05.019Z,76.37
2018-04-30T01:47:05.200Z,76.84
2018-04-30T01:48:05.386Z,77.48
2018-04-30T01:49:05.566Z,77.67
2018-04-30T01:50:05.746Z,77.48
2018-04-30T01:51:05.925Z,77.38
2018-04-30T01:52:06.105Z,77.38
2018-04-30T01:53:06.282Z,77.09
2018-04-30T01:54:06.462Z,77.09
2018-04-30T01:55:06.635Z,77.76
2018-04-30T01:56:06.819Z,77.48
2018-04-30T01:57:06.994Z,77.67
2018-04-30T01:58:07.168Z,77.58
2018-04-30T01:59:07.347Z,77.67
2018-04-30T02:00:07.518Z,77.76
2018-04-30T02:01:07.698Z,77.86
2018-04-30T02:02:07.887Z,77.86
2018-04-30T02:03:08.053Z,78.44
2018-04-30T02:04:08.244Z,78.44
2018-04-30T02:05:08.414Z,78.30
2018-04-30T02:06:08.591Z,78.40
2018-04-30T02:07:08.778Z,78.97
2018-04-30T02:08:08.952Z,78.88
2018-04-30T02:09:09.128Z,78.97
2018-04-30T02:10:09.310Z,79.26
2018-04-30T02:11:09.491Z,79.07
2018-04-30T02:12:09.666Z,79.83
2018-04-30T02:13:09.847Z,80.08
2018-04-30T02:14:10.025Z,80.27
2018-04-30T02:15:10.201Z,80.85
2018-04-30T02:16:10.379Z,81.33
2018-04-30T02:17:10.554Z,80.94
2018-04-30T02:18:10.731Z,81.43
2018-04-30T02:19:10.912Z,80.37
2018-04-30T02:20:11.102Z,80.94
2018-04-30T02:21:11.282Z,81.33
2018-04-30T02:22:11.460Z,81.04
2018-04-30T02:23:11.653Z,81.13
2018-04-30T02:24:11.826Z,80.94
2018-04-30T02:25:12.011Z,81.04
2018-04-30T02:26:12.190Z,81.33
2018-04-30T02:27:12.372Z,81.43
2018-04-30T02:28:12.545Z,81.71
2018-04-30T02:29:12.718Z,81.71
2018-04-30T02:30:12.888Z,82.09
2018-04-30T02:31:13.073Z,81.96
2018-04-30T02:32:13.245Z,82.06
2018-04-30T02:33:13.442Z,82.06
2018-04-30T02:34:13.616Z,82.15
2018-04-30T02:35:13.793Z,82.43
2018-04-30T02:36:13.983Z,82.15
2018-04-30T02:37:14.160Z,81.86
2018-04-30T02:38:14.383Z,81.77
2018-04-30T02:39:14.509Z,81.67
2018-04-30T02:40:14.686Z,81.38
2018-04-30T02:41:14.865Z,81.48
2018-04-30T02:42:15.035Z,81.57
2018-04-30T02:43:15.207Z,81.71
2018-04-30T02:44:15.392Z,81.71
2018-04-30T02:45:15.564Z,81.57
2018-04-30T02:46:15.751Z,81.33
2018-04-30T02:47:15.923Z,81.13
2018-04-30T02:48:16.100Z,81.52
2018-04-30T02:49:16.340Z,81.52
2018-04-30T02:50:16.404Z,80.85
2018-04-30T02:51:16.577Z,81.43
2018-04-30T02:52:16.758Z,81.33
2018-04-30T02:53:16.952Z,80.66
2018-04-30T02:54:17.117Z,80.89
2018-04-30T02:55:17.311Z,80.32
2018-04-30T02:56:17.481Z,80.60
2018-04-30T02:57:17.655Z,80.60
2018-04-30T02:58:17.828Z,80.41
2018-04-30T02:59:18.000Z,79.74
2018-04-30T03:00:18.179Z,80.12
2018-04-30T03:01:18.355Z,80.03
2018-04-30T03:02:18.535Z,80.32
2018-04-30T03:03:18.703Z,79.74
2018-04-30T03:04:18.879Z,79.26
2018-04-30T03:05:19.054Z,79.36
2018-04-30T03:06:19.226Z,79.83
2018-04-30T03:07:19.400Z,79.45
2018-04-30T03:08:19.566Z,79.74
2018-04-30T03:09:19.748Z,79.16
2018-04-30T03:10:19.968Z,78.97
2018-04-30T03:11:20.090Z,79.36
2018-04-30T03:12:20.266Z,78.88
2018-04-30T03:13:20.482Z,79.26
2018-04-30T03:14:20.644Z,79.45
2018-04-30T03:15:20.821Z,78.88
2018-04-30T03:16:21.001Z,78.97
2018-04-30T03:17:21.165Z,78.78
2018-04-30T03:18:21.340Z,78.34
2018-04-30T03:19:22.366Z,78.44
2018-04-30T03:20:21.667Z,78.15
2018-04-30T03:21:21.854Z,78.34
2018-04-30T03:22:22.028Z,77.86
2018-04-30T03:23:22.199Z,77.95
2018-04-30T03:24:22.371Z,78.15
2018-04-30T03:25:22.546Z,77.58
2018-04-30T03:26:22.723Z,77.92
2018-04-30T03:27:22.973Z,78.30
2018-04-30T03:28:23.075Z,78.49
2018-04-30T03:29:23.249Z,78.49
2018-04-30T03:30:23.434Z,78.30
2018-04-30T03:31:23.607Z,78.59
2018-04-30T03:32:23.784Z,78.30
2018-04-30T03:33:23.955Z,78.69
2018-04-30T03:34:24.143Z,78.20
2018-04-30T03:35:24.315Z,78.88
2018-04-30T03:36:24.498Z,78.69
2018-04-30T03:37:24.669Z,78.30
2018-04-30T03:38:24.839Z,78.40
2018-04-30T03:39:25.023Z,78.40
2018-04-30T03:40:25.200Z,78.20
2018-04-30T03:41:25.369Z,78.40
2018-04-30T03:42:25.548Z,78.20
2018-04-30T03:43:25.719Z,78.40
2018-04-30T03:44:25.898Z,78.20
2018-04-30T03:45:26.077Z,78.30
2018-04-30T03:46:26.245Z,78.69
2018-04-30T03:47:26.430Z,78.40
2018-04-30T03:48:26.603Z,78.78
2018-04-30T03:49:26.789Z,78.69
2018-04-30T03:50:26.975Z,78.88
2018-04-30T03:51:27.161Z,78.69
2018-04-30T03:52:27.344Z,78.69
2018-04-30T03:53:27.523Z,78.59
2018-04-30T03:54:27.701Z,79.64
2018-04-30T03:55:27.873Z,79.13
2018-04-30T03:56:28.048Z,79.22
2018-04-30T03:57:28.228Z,78.84
2018-04-30T03:58:28.463Z,79.32
2018-04-30T03:59:28.609Z,79.51
2018-04-30T04:00:28.792Z,79.32
2018-04-30T04:01:28.977Z,79.70
2018-04-30T04:02:29.155Z,79.80
2018-04-30T04:03:29.347Z,79.60
2018-04-30T04:04:29.523Z,79.32
2018-04-30T04:05:29.715Z,79.32
2018-04-30T04:06:29.897Z,79.89
2018-04-30T04:07:30.071Z,78.93
2018-04-30T04:08:30.252Z,79.32
2018-04-30T04:09:30.433Z,79.32
2018-04-30T04:10:30.606Z,79.13
2018-04-30T04:11:30.793Z,79.32
2018-04-30T04:12:30.967Z,79.03
2018-04-30T04:13:31.149Z,79.13
2018-04-30T04:14:31.326Z,79.22
2018-04-30T04:15:31.504Z,79.32
2018-04-30T04:16:31.680Z,79.41
2018-04-30T04:17:31.886Z,79.22
2018-04-30T04:18:32.052Z,79.22
2018-04-30T04:19:32.223Z,79.13
2018-04-30T04:20:32.396Z,79.03
2018-04-30T04:21:32.594Z,79.22
2018-04-30T04:22:32.751Z,79.22
2018-04-30T04:23:32.926Z,78.64
2018-04-30T04:24:33.105Z,78.45
2018-04-30T04:25:33.283Z,78.36
2018-04-30T04:26:33.536Z,77.59
2018-04-30T04:27:33.561Z,78.36
2018-04-30T04:28:33.741Z,78.36
2018-04-30T04:29:33.915Z,78.36
2018-04-30T04:30:34.135Z,78.17
2018-04-30T04:31:34.290Z,78.17
2018-04-30T04:32:34.461Z,77.44
2018-04-30T04:33:34.674Z,77.15
2018-04-30T04:34:34.850Z,77.25
2018-04-30T04:35:35.101Z,77.34
2018-04-30T04:36:35.224Z,77.15
2018-04-30T04:37:35.503Z,76.96
2018-04-30T04:38:35.585Z,77.44
2018-04-30T04:39:35.653Z,77.44
2018-04-30T04:40:35.827Z,76.86
2018-04-30T04:41:36.017Z,77.44
2018-04-30T04:42:36.195Z,77.44
2018-04-30T04:43:36.438Z,76.67
2018-04-30T04:44:36.495Z,76.92
2018-04-30T04:45:36.669Z,77.31
2018-04-30T04:46:36.836Z,77.11
2018-04-30T04:47:37.009Z,77.59
2018-04-30T04:48:37.190Z,77.31
2018-04-30T04:49:37.375Z,77.50
2018-04-30T04:50:37.548Z,77.21
2018-04-30T04:51:37.726Z,77.11
2018-04-30T04:52:37.909Z,76.73
2018-04-30T04:53:38.085Z,77.40
2018-04-30T04:54:38.253Z,77.59
2018-04-30T04:55:38.440Z,77.02
2018-04-30T04:56:38.629Z,76.82
2018-04-30T04:57:38.810Z,76.92
2018-04-30T04:58:38.997Z,76.06
2018-04-30T04:59:39.182Z,76.21
2018-04-30T05:00:39.355Z,76.12
2018-04-30T05:01:39.554Z,76.31
2018-04-30T05:02:39.703Z,77.11
2018-04-30T05:03:39.881Z,76.31
2018-04-30T05:04:40.051Z,76.15
2018-04-30T05:05:40.228Z,76.02
2018-04-30T05:06:40.407Z,76.15
2018-04-30T05:07:40.633Z,76.06
2018-04-30T05:08:40.810Z,75.96
2018-04-30T05:09:40.999Z,75.58
2018-04-30T05:10:44.240Z,75.29
2018-04-30T05:11:42.956Z,74.97
2018-04-30T05:12:43.360Z,75.01
2018-04-30T05:13:42.566Z,74.49
2018-04-30T05:14:41.895Z,74.58
2018-04-30T05:15:41.902Z,74.58
2018-04-30T05:16:42.084Z,74.97
2018-04-30T05:17:42.269Z,74.77
2018-04-30T05:18:42.445Z,74.77
2018-04-30T05:19:42.626Z,74.77
2018-04-30T05:20:42.808Z,74.58
2018-04-30T05:21:42.985Z,74.58
2018-04-30T05:22:43.171Z,74.49
2018-04-30T05:23:43.344Z,74.77
2018-04-30T05:24:43.520Z,75.45
2018-04-30T05:25:43.693Z,75.26
2018-04-30T05:26:43.863Z,74.87
2018-04-30T05:27:44.046Z,74.77
2018-04-30T05:28:44.272Z,74.87
2018-04-30T05:29:44.447Z,74.49
2018-04-30T05:30:44.621Z,74.84
2018-04-30T05:31:44.849Z,74.93
2018-04-30T05:32:44.990Z,75.12
2018-04-30T05:33:45.489Z,74.26
2018-04-30T05:34:45.544Z,74.97
2018-04-30T05:35:45.908Z,75.16
2018-04-30T05:36:45.957Z,75.51
2018-04-30T05:37:45.938Z,75.02
2018-04-30T05:38:46.391Z,75.22
2018-04-30T05:39:46.478Z,74.84
2018-04-30T05:40:46.641Z,74.74
2018-04-30T05:41:46.832Z,74.16
2018-04-30T05:42:47.115Z,74.26
2018-04-30T05:43:47.346Z,74.07
2018-04-30T05:44:47.385Z,73.69
2018-04-30T05:45:47.634Z,73.88
2018-04-30T05:46:47.820Z,73.02
2018-04-30T05:47:47.844Z,73.02
2018-04-30T05:48:47.959Z,73.02
2018-04-30T05:49:48.029Z,73.02
2018-04-30T05:50:48.016Z,73.40
2018-04-30T05:51:48.916Z,73.50
2018-04-30T05:52:48.513Z,73.88
2018-04-30T05:53:48.737Z,73.88
2018-04-30T05:54:48.705Z,73.97
2018-04-30T05:55:48.895Z,73.69
2018-04-30T05:56:52.402Z,74.16
2018-04-30T05:57:49.275Z,73.40
2018-04-30T05:58:49.455Z,72.92
2018-04-30T05:59:49.628Z,72.83
2018-04-30T06:00:49.801Z,72.54
2018-04-30T06:01:49.981Z,73.02
2018-04-30T06:02:50.166Z,72.83
2018-04-30T06:03:50.357Z,72.63
2018-04-30T06:04:50.534Z,72.34
2018-04-30T06:05:50.703Z,71.68
2018-04-30T06:06:50.893Z,71.11
2018-04-30T06:07:51.059Z,71.20
2018-04-30T06:08:51.242Z,71.68
2018-04-30T06:09:51.411Z,71.30
2018-04-30T06:10:51.604Z,71.48
2018-04-30T06:11:51.783Z,71.30
2018-04-30T06:12:51.959Z,71.39
2018-04-30T06:13:52.132Z,71.30
2018-04-30T06:14:52.312Z,70.72
2018-04-30T06:15:52.488Z,70.24
2018-04-30T06:16:52.655Z,70.72
2018-04-30T06:17:52.865Z,70.43
2018-04-30T06:18:53.010Z,69.76
2018-04-30T06:19:53.197Z,70.15
2018-04-30T06:20:53.380Z,69.95
2018-04-30T06:21:53.607Z,70.34
2018-04-30T06:22:53.738Z,70.34
2018-04-30T06:23:53.929Z,70.24
2018-04-30T06:24:54.113Z,70.24
2018-04-30T06:25:54.284Z,70.72
2018-04-30T06:26:54.560Z,71.11
2018-04-30T06:27:54.652Z,70.24
2018-04-30T06:28:54.844Z,70.24
2018-04-30T06:29:55.221Z,69.86
2018-04-30T06:30:55.392Z,69.80
2018-04-30T06:31:55.443Z,69.76
2018-04-30T06:32:55.652Z,69.03
2018-04-30T06:33:55.656Z,69.42
2018-04-30T06:34:55.842Z,69.38
2018-04-30T06:35:56.010Z,69.09
2018-04-30T06:36:56.191Z,68.94
2018-04-30T06:37:56.463Z,69.03
2018-04-30T06:38:56.608Z,68.74
2018-04-30T06:39:56.792Z,68.46
2018-04-30T06:40:56.977Z,67.88
2018-04-30T06:41:57.157Z,67.88
2018-04-30T06:42:57.335Z,68.27
2018-04-30T06:43:57.519Z,67.88
2018-04-30T06:44:57.714Z,67.98
2018-04-30T06:45:57.877Z,67.31
2018-04-30T06:46:58.054Z,67.02
2018-04-30T06:47:58.230Z,67.27
2018-04-30T06:48:58.402Z,66.70
2018-04-30T06:49:58.573Z,66.35
2018-04-30T06:50:58.743Z,66.38
2018-04-30T06:51:58.921Z,61.85
2018-04-30T06:52:59.100Z,60.82
2018-04-30T06:53:59.289Z,60.70
2018-04-30T06:54:59.466Z,61.72
2018-04-30T06:55:59.649Z,63.22
2018-04-30T06:56:59.872Z,63.22
2018-04-30T06:57:59.936Z,64.18
2018-04-30T06:59:00.148Z,64.66
2018-04-30T07:00:00.345Z,65.58
2018-04-30T07:01:00.800Z,65.20
2018-04-30T07:02:00.887Z,65.68
2018-04-30T07:03:01.090Z,65.97
2018-04-30T07:04:01.219Z,65.97
2018-04-30T07:05:01.054Z,66.06
2018-04-30T07:06:01.245Z,66.06
2018-04-30T07:07:01.428Z,65.88
2018-04-30T07:08:01.614Z,65.97
2018-04-30T07:09:01.797Z,65.71
2018-04-30T07:10:01.972Z,64.47
2018-04-30T07:11:02.151Z,64.95
2018-04-30T07:12:02.323Z,64.47
2018-04-30T07:13:02.684Z,64.47
2018-04-30T07:14:03.212Z,64.56
2018-04-30T07:15:03.121Z,63.70
2018-04-30T07:16:03.369Z,63.60
2018-04-30T07:17:03.224Z,63.19
2018-04-30T07:18:03.582Z,63.70
2018-04-30T07:19:03.737Z,60.95
2018-04-30T07:20:04.149Z,58.81
2018-04-30T07:21:04.169Z,58.10
2018-04-30T07:22:04.593Z,53.83
2018-04-30T07:23:04.606Z,53.80
2018-04-30T07:24:04.880Z,56.73
2018-04-30T07:25:05.185Z,58.23
2018-04-30T07:26:05.064Z,60.31
2018-04-30T07:27:05.244Z,61.72
2018-04-30T07:28:05.507Z,61.85
2018-04-30T07:29:05.723Z,60.89
2018-04-30T07:30:05.645Z,61.66
2018-04-30T07:31:05.995Z,61.98
2018-04-30T07:32:06.417Z,62.65
2018-04-30T07:33:06.020Z,63.39
2018-04-30T07:34:06.260Z,63.86
2018-04-30T07:35:06.303Z,64.53
2018-04-30T07:36:07.181Z,64.69
2018-04-30T07:37:06.977Z,65.55
2018-04-30T07:38:07.063Z,65.74
2018-04-30T07:39:07.135Z,66.13
2018-04-30T07:40:07.306Z,66.51
2018-04-30T07:41:08.012Z,66.96
2018-04-30T07:42:08.689Z,67.05
2018-04-30T07:43:07.688Z,67.05
2018-04-30T07:44:07.894Z,67.43
2018-04-30T07:45:08.528Z,67.82
2018-04-30T07:46:08.201Z,67.91
2018-04-30T07:47:08.379Z,68.29
2018-04-30T07:48:08.564Z,67.91
2018-04-30T07:49:08.806Z,68.01
2018-04-30T07:50:08.936Z,68.77
2018-04-30T07:51:09.118Z,68.49
2018-04-30T07:52:09.293Z,68.20
2018-04-30T07:53:09.493Z,68.49
2018-04-30T07:54:09.658Z,68.58
2018-04-30T07:55:09.847Z,68.87
2018-04-30T07:56:10.046Z,68.58
2018-04-30T07:57:10.254Z,68.45
2018-04-30T07:58:10.435Z,68.35
2018-04-30T07:59:10.638Z,68.84
2018-04-30T08:00:10.816Z,69.15
2018-04-30T08:01:11.038Z,68.68
2018-04-30T08:02:11.253Z,68.20
2018-04-30T08:03:11.433Z,68.39
2018-04-30T08:04:11.601Z,68.16
2018-04-30T08:05:11.765Z,68.45
2018-04-30T08:06:11.974Z,68.55
2018-04-30T08:07:12.173Z,68.74
2018-04-30T08:08:12.346Z,68.26
2018-04-30T08:09:12.567Z,68.77
2018-04-30T08:10:14.332Z,68.96
2018-04-30T08:11:13.524Z,68.96
2018-04-30T08:12:13.061Z,69.15
2018-04-30T08:13:13.243Z,68.77
2018-04-30T08:14:13.412Z,68.87
2018-04-30T08:15:13.884Z,68.77
2018-04-30T08:16:13.700Z,69.73
2018-04-30T08:17:13.900Z,69.06
2018-04-30T08:18:14.087Z,68.39
2018-04-30T08:19:14.276Z,69.15
2018-04-30T08:20:14.558Z,68.68
2018-04-30T08:21:14.852Z,68.49
2018-04-30T08:22:14.816Z,68.39
2018-04-30T08:23:15.007Z,68.49
2018-04-30T08:24:15.185Z,68.49
2018-04-30T08:25:15.358Z,67.97
2018-04-30T08:26:17.088Z,67.34
2018-04-30T08:27:17.292Z,68.01
2018-04-30T08:28:16.706Z,67.88
2018-04-30T08:29:18.701Z,68.16
2018-04-30T08:30:17.495Z,68.45
2018-04-30T08:31:17.941Z,68.45
2018-04-30T08:32:18.204Z,68.93
2018-04-30T08:33:17.959Z,68.45
2018-04-30T08:34:18.829Z,68.16
2018-04-30T08:35:19.495Z,68.35
2018-04-30T08:36:18.761Z,68.26
2018-04-30T08:37:17.533Z,68.84
2018-04-30T08:38:17.452Z,68.84
2018-04-30T08:39:17.681Z,69.02
2018-04-30T08:40:17.850Z,68.93
2018-04-30T08:41:18.023Z,68.84
2018-04-30T08:42:18.202Z,68.93
2018-04-30T08:43:18.392Z,68.84
2018-04-30T08:44:18.576Z,68.74
2018-04-30T08:45:18.767Z,68.55
2018-04-30T08:46:18.965Z,68.93
2018-04-30T08:47:19.123Z,69.31
2018-04-30T08:48:19.308Z,69.50
2018-04-30T08:49:19.477Z,68.84
2018-04-30T08:50:19.661Z,69.50
2018-04-30T08:51:19.840Z,69.60
2018-04-30T08:52:20.039Z,69.50
2018-04-30T08:53:21.381Z,69.41
2018-04-30T08:54:20.393Z,69.50
2018-04-30T08:55:20.581Z,69.60
2018-04-30T08:56:20.761Z,69.82
2018-04-30T08:57:20.990Z,69.02
2018-04-30T08:58:21.052Z,68.84
2018-04-30T08:59:21.233Z,68.74
2018-04-30T09:00:21.586Z,69.02
2018-04-30T09:01:21.682Z,68.45
2018-04-30T09:02:21.896Z,68.45
2018-04-30T09:03:22.045Z,68.16
2018-04-30T09:04:22.401Z,68.26
2018-04-30T09:05:22.435Z,68.74
2018-04-30T09:06:22.620Z,68.74
2018-04-30T09:07:22.830Z,68.74
2018-04-30T09:08:23.009Z,68.96
2018-04-30T09:09:23.943Z,69.06
2018-04-30T09:10:23.463Z,69.50
2018-04-30T09:11:23.518Z,68.87
2018-04-30T09:12:23.712Z,68.49
2018-04-30T09:13:23.901Z,69.35
2018-04-30T09:14:24.079Z,69.06
2018-04-30T09:15:24.256Z,68.87
2018-04-30T09:16:24.423Z,68.58
2018-04-30T09:17:24.623Z,68.68
2018-04-30T09:18:24.800Z,67.97
2018-04-30T09:19:24.981Z,68.39
2018-04-30T09:20:25.156Z,68.74
2018-04-30T09:21:25.341Z,68.93
2018-04-30T09:22:25.520Z,69.02
2018-04-30T09:23:25.696Z,68.93
2018-04-30T09:24:25.869Z,69.02
2018-04-30T09:25:26.047Z,68.93
2018-04-30T09:26:26.224Z,69.21
2018-04-30T09:27:26.402Z,70.07
2018-04-30T09:28:26.585Z,70.27
2018-04-30T09:29:26.764Z,70.17
2018-04-30T09:30:26.937Z,69.98
2018-04-30T09:31:27.115Z,70.56
2018-04-30T09:32:27.289Z,70.01
2018-04-30T09:33:27.477Z,70.01
2018-04-30T09:34:27.649Z,68.96
2018-04-30T09:35:27.825Z,68.96
2018-04-30T09:36:28.007Z,69.54
2018-04-30T09:37:28.192Z,68.96
2018-04-30T09:38:28.366Z,69.25
2018-04-30T09:39:28.550Z,69.15
2018-04-30T09:40:28.755Z,68.68
2018-04-30T09:41:28.924Z,68.58
2018-04-30T09:42:29.612Z,67.91
2018-04-30T09:43:29.310Z,68.20
2018-04-30T09:44:29.492Z,68.49
2018-04-30T09:45:29.683Z,68.39
2018-04-30T09:46:29.855Z,67.91
2018-04-30T09:47:30.037Z,67.34
2018-04-30T09:48:30.227Z,66.76
2018-04-30T09:49:30.397Z,66.80
2018-04-30T09:50:30.585Z,65.94
2018-04-30T09:51:30.860Z,64.53
2018-04-30T09:52:30.992Z,64.63
2018-04-30T09:53:31.255Z,64.72
2018-04-30T09:54:31.329Z,64.15
2018-04-30T09:55:31.506Z,64.82
2018-04-30T09:56:31.688Z,64.22
2018-04-30T09:57:31.858Z,63.64
2018-04-30T09:58:32.081Z,64.31
2018-04-30T09:59:32.230Z,63.54
2018-04-30T10:00:32.406Z,64.82
2018-04-30T10:01:32.602Z,64.25
2018-04-30T10:02:32.797Z,63.22
2018-04-30T10:03:32.962Z,61.31
2018-04-30T10:04:33.138Z,60.25
2018-04-30T10:05:33.318Z,59.36
2018-04-30T10:06:33.503Z,58.29
2018-04-30T10:07:33.678Z,57.23
2018-04-30T10:08:33.860Z,55.12
2018-04-30T10:09:34.038Z,55.00
2018-04-30T10:10:34.217Z,54.78
2018-04-30T10:11:34.400Z,54.88
2018-04-30T10:12:34.584Z,54.94
2018-04-30T10:13:34.763Z,55.64
2018-04-30T10:14:34.946Z,55.33
2018-04-30T10:15:35.124Z,54.63
2018-04-30T10:16:35.302Z,54.53
2018-04-30T10:17:35.485Z,55.55
2018-04-30T10:18:35.661Z,55.52
2018-04-30T10:19:35.858Z,54.11
2018-04-30T10:20:36.836Z,54.27
2018-04-30T10:21:37.185Z,55.45
2018-04-30T10:22:36.361Z,55.55
2018-04-30T10:23:36.662Z,53.82
2018-04-30T10:24:37.580Z,54.30
2018-04-30T10:25:37.957Z,55.35
2018-04-30T10:26:38.415Z,55.55
2018-04-30T10:27:39.044Z,54.85
2018-04-30T10:28:38.884Z,54.46
2018-04-30T10:29:37.583Z,55.62
2018-04-30T10:30:37.760Z,55.40
2018-04-30T10:31:38.285Z,55.87
2018-04-30T10:32:38.097Z,56.16
2018-04-30T10:33:38.289Z,56.74
2018-04-30T10:34:38.496Z,56.32
2018-04-30T10:35:38.677Z,56.23
2018-04-30T10:36:38.869Z,56.23
2018-04-30T10:37:39.041Z,56.45
2018-04-30T10:38:39.224Z,56.35
2018-04-30T10:39:39.416Z,56.48
2018-04-30T10:40:39.609Z,54.97
2018-04-30T10:41:39.783Z,52.12
2018-04-30T10:42:39.959Z,50.78
2018-04-30T10:43:40.134Z,50.32
2018-04-30T10:44:40.320Z,50.23
2018-04-30T10:45:40.575Z,49.74
2018-04-30T10:46:40.713Z,49.96
2018-04-30T10:47:40.879Z,48.83
2018-04-30T10:48:41.052Z,48.64
2018-04-30T10:49:41.235Z,47.00
2018-04-30T10:50:41.415Z,48.04
2018-04-30T10:51:41.633Z,46.98
2018-04-30T10:52:41.780Z,46.98
2018-04-30T10:53:41.992Z,47.05
2018-04-30T10:54:42.453Z,47.92
2018-04-30T10:55:42.280Z,48.18
2018-04-30T10:56:42.464Z,49.72
2018-04-30T10:57:42.643Z,49.69
2018-04-30T10:58:42.838Z,49.76
2018-04-30T10:59:43.275Z,49.96
2018-04-30T11:00:43.230Z,50.43
2018-04-30T11:01:43.399Z,51.01
2018-04-30T11:02:43.697Z,51.59
2018-04-30T11:03:43.777Z,51.65
2018-04-30T11:04:43.965Z,51.46
2018-04-30T11:05:44.147Z,51.85
2018-04-30T11:06:44.357Z,52.23
2018-04-30T11:07:44.517Z,52.36
2018-04-30T11:08:44.704Z,52.26
2018-04-30T11:09:44.888Z,51.32
2018-04-30T11:10:45.098Z,50.37
2018-04-30T11:11:45.259Z,50.65
2018-04-30T11:12:45.449Z,49.79
2018-04-30T11:13:45.625Z,50.01
2018-04-30T11:14:46.334Z,49.84
2018-04-30T11:15:46.048Z,49.93
2018-04-30T11:16:46.098Z,48.69
2018-04-30T11:17:46.286Z,47.25
2018-04-30T11:18:46.459Z,47.82
2018-04-30T11:19:46.649Z,48.30
2018-04-30T11:20:46.826Z,48.79
2018-04-30T11:21:47.007Z,48.76
2018-04-30T11:22:47.193Z,48.66
2018-04-30T11:23:47.381Z,48.95
2018-04-30T11:24:47.569Z,48.64
2018-04-30T11:25:47.749Z,48.83
2018-04-30T11:26:47.943Z,49.60
2018-04-30T11:27:48.125Z,50.17
2018-04-30T11:28:48.326Z,49.69
2018-04-30T11:29:48.531Z,49.98
2018-04-30T11:30:48.744Z,50.37
2018-04-30T11:31:48.887Z,49.43
2018-04-30T11:32:49.257Z,49.55
2018-04-30T11:33:49.195Z,48.11
2018-04-30T11:34:49.407Z,47.82
2018-04-30T11:35:49.588Z,47.15
2018-04-30T11:36:49.766Z,47.82
2018-04-30T11:37:49.952Z,47.44
2018-04-30T11:38:50.759Z,47.44
2018-04-30T11:39:50.311Z,48.49
2018-04-30T11:40:50.490Z,48.49
2018-04-30T11:41:50.672Z,47.92
2018-04-30T11:42:50.855Z,46.84
2018-04-30T11:43:52.282Z,47.03
2018-04-30T11:44:51.224Z,46.94
2018-04-30T11:45:51.512Z,47.03
2018-04-30T11:46:51.569Z,47.03
2018-04-30T11:47:51.811Z,47.03
2018-04-30T11:48:51.967Z,47.03
2018-04-30T11:49:52.241Z,46.94
2018-04-30T11:50:52.427Z,48.02
2018-04-30T11:51:52.580Z,47.75
2018-04-30T11:52:52.654Z,47.08
2018-04-30T11:53:52.830Z,46.62
2018-04-30T11:54:53.019Z,45.56
2018-04-30T11:55:53.205Z,45.06
2018-04-30T11:56:53.406Z,44.68
2018-04-30T11:57:53.581Z,43.79
2018-04-30T11:58:53.764Z,44.58
2018-04-30T11:59:53.953Z,43.79
2018-04-30T12:00:54.133Z,43.88
2018-04-30T12:01:54.398Z,44.96
2018-04-30T12:02:54.472Z,44.38
2018-04-30T12:03:54.642Z,44.29
2018-04-30T12:04:54.908Z,45.25
2018-04-30T12:05:56.029Z,45.73
2018-04-30T12:06:55.288Z,45.35
2018-04-30T12:07:55.316Z,45.15
2018-04-30T12:08:55.541Z,44.56
2018-04-30T12:09:56.583Z,44.75
2018-04-30T12:10:57.472Z,44.37
2018-04-30T12:11:58.389Z,44.65
2018-04-30T12:12:56.261Z,45.42
2018-04-30T12:13:56.446Z,45.52
2018-04-30T12:14:56.619Z,45.23
2018-04-30T12:15:56.808Z,45.61
2018-04-30T12:16:56.988Z,46.28
2018-04-30T12:17:57.174Z,46.28
2018-04-30T12:18:57.359Z,45.90
2018-04-30T12:19:57.556Z,46.00
2018-04-30T12:20:57.736Z,45.32
2018-04-30T12:21:57.936Z,44.94
2018-04-30T12:22:58.110Z,45.23
2018-04-30T12:23:58.294Z,45.14
2018-04-30T12:24:58.578Z,45.23
2018-04-30T12:25:58.647Z,44.37
2018-04-30T12:26:58.838Z,45.04
2018-04-30T12:27:59.019Z,45.21
2018-04-30T12:28:59.197Z,46.19
2018-04-30T12:29:59.375Z,45.81
2018-04-30T12:30:59.558Z,46.00
2018-04-30T12:31:59.738Z,46.96
2018-04-30T12:32:59.927Z,45.52
2018-04-30T12:34:00.115Z,45.40
2018-04-30T12:35:00.352Z,45.59
2018-04-30T12:36:00.624Z,44.92
2018-04-30T12:37:00.813Z,44.92
2018-04-30T12:38:00.860Z,45.40
2018-04-30T12:39:01.045Z,45.88
2018-04-30T12:40:01.233Z,45.11
2018-04-30T12:41:01.418Z,45.42
2018-04-30T12:42:01.601Z,45.81
2018-04-30T12:43:01.777Z,46.00
2018-04-30T12:44:02.009Z,45.52
2018-04-30T12:45:02.158Z,45.42
2018-04-30T12:46:02.341Z,45.32
2018-04-30T12:47:02.526Z,46.38
2018-04-30T12:48:02.707Z,45.61
2018-04-30T12:49:02.891Z,44.94
2018-04-30T12:50:03.127Z,45.42
2018-04-30T12:51:03.273Z,46.19
2018-04-30T12:52:06.786Z,45.32
2018-04-30T12:53:03.819Z,45.04
2018-04-30T12:54:03.937Z,45.52
2018-04-30T12:55:03.965Z,45.61